sensor_id;sensor_type;location;lat;lon;timestamp;pressure;altitude;pressure_sealevel;temperature;humidity
74431;BME280;62863;52.062;23.764;2023-03-23T12:39:45;1012.9;;;8.9;65.9
74431;BME280;62863;52.062;23.764;2023-03-23T12:43:50;1015.6;;;21.2;35.4
74431;BME280;62863;52.062;23.764;2023-03-23T12:54:26;1015.7;;;21;35.4
74431;BME280;62863;52.062;23.764;2023-03-23T12:58:50;1015.7;;;20.5;36.3
74431;BME280;62863;52.062;23.764;2023-03-23T13:04:25;1015.7;;;20.5;36.3
74431;BME280;62863;52.062;23.764;2023-03-23T13:08:40;1015.7;;;20.4;36.5
74431;BME280;62863;52.062;23.764;2023-03-23T13:14:16;1015.6;;;20.2;37.2
74431;BME280;62863;52.062;23.764;2023-03-23T13:19:26;1015.6;;;20.1;37.7
74431;BME280;62863;52.062;23.764;2023-03-23T13:23:50;1015.6;;;19.8;38.5
74431;BME280;62863;52.062;23.764;2023-03-23T13:29:25;1015.6;;;19.7;38.9
74431;BME280;62863;52.062;23.764;2023-03-23T13:34:02;1015.5;;;19.5;39.1
74431;BME280;62863;52.062;23.764;2023-03-23T13:44:38;1015.4;;;19.2;39.6
74431;BME280;62863;52.062;23.764;2023-03-23T13:49:15;1015.4;;;19.1;39.7
74431;BME280;62863;52.062;23.764;2023-03-23T13:54:29;1015.2;;;19;40
74431;BME280;62863;52.062;23.764;2023-03-23T13:59:30;1015.2;;;19;40.1
74431;BME280;62863;52.062;23.764;2023-03-23T14:04:14;1015.1;;;19;40.4
74431;BME280;62863;52.062;23.764;2023-03-23T14:09:25;1015;;;19.2;40.6
74431;BME280;62863;52.062;23.764;2023-03-23T14:13:58;1015;;;19.3;39.8
74431;BME280;62863;52.062;23.764;2023-03-23T14:19:28;1015;;;19.4;39.8
74431;BME280;62863;52.062;23.764;2023-03-23T14:23:47;1014.9;;;19.5;39.6
74431;BME280;62863;52.062;23.764;2023-03-23T14:29:13;1014.9;;;19.8;39.1
74431;BME280;62863;52.062;23.764;2023-03-23T14:34:26;1014.9;;;19.7;39
74431;BME280;62863;52.062;23.764;2023-03-23T14:38:39;1014.9;;;19.8;38.8
74431;BME280;62863;52.062;23.764;2023-03-23T14:44:28;1014.9;;;19.7;38.9
74431;BME280;62863;52.062;23.764;2023-03-23T14:49:12;1014.9;;;19.6;38.9
74431;BME280;62863;52.062;23.764;2023-03-23T14:54:15;1014.9;;;19.4;39.1
74431;BME280;62863;52.062;23.764;2023-03-23T14:59:02;1014.9;;;19.3;39.5
74431;BME280;62863;52.062;23.764;2023-03-23T15:09:29;1014.7;;;19.1;39.4
74431;BME280;62863;52.062;23.764;2023-03-23T15:19:16;1014.6;;;19;39.8
74431;BME280;62863;52.062;23.764;2023-03-23T15:24:31;1014.7;;;18.6;39.9
74431;BME280;62863;52.062;23.764;2023-03-23T15:44:20;1014.8;;;17.8;42
74431;BME280;62863;52.062;23.764;2023-03-23T15:49:27;1014.8;;;17.8;42.3
74431;BME280;62863;52.062;23.764;2023-03-23T15:53:51;1014.8;;;17.8;41.8
74431;BME280;62863;52.062;23.764;2023-03-23T15:59:27;1014.8;;;17.6;42.2
74431;BME280;62863;52.062;23.764;2023-03-23T16:03:40;1014.7;;;17.5;43.2
74431;BME280;62863;52.062;23.764;2023-03-23T16:09:05;1014.7;;;17.6;42.5
74431;BME280;62863;52.062;23.764;2023-03-23T16:14:25;1014.6;;;17.5;43
74431;BME280;62863;52.062;23.764;2023-03-23T16:18:39;1014.6;;;17.5;42.8
74431;BME280;62863;52.062;23.764;2023-03-23T16:23:55;1014.6;;;17.3;43.4
74431;BME280;62863;52.062;23.764;2023-03-23T16:29:19;1014.7;;;17.2;44.1
74431;BME280;62863;52.062;23.764;2023-03-23T16:34:25;1014.7;;;17.1;44.4
74431;BME280;62863;52.062;23.764;2023-03-23T16:39:03;1014.7;;;17.1;44.8
74431;BME280;62863;52.062;23.764;2023-03-23T16:43:39;1014.6;;;17;45
74431;BME280;62863;52.062;23.764;2023-03-23T16:48:39;1014.6;;;16.9;45.5
74431;BME280;62863;52.062;23.764;2023-03-23T16:54:17;1014.6;;;16.9;45.6
74431;BME280;62863;52.062;23.764;2023-03-23T16:59:29;1014.6;;;16.9;45.4
74431;BME280;62863;52.062;23.764;2023-03-23T17:08:39;1014.6;;;16.8;45.4
74431;BME280;62863;52.062;23.764;2023-03-23T17:13:45;1014.5;;;16.6;45.8
74431;BME280;62863;52.062;23.764;2023-03-23T17:24:25;1014.5;;;16.6;46.5
74431;BME280;62863;52.062;23.764;2023-03-23T17:29:23;1014.7;;;16.6;46.2
74431;BME280;62863;52.062;23.764;2023-03-23T17:33:49;1014.7;;;16.5;46.1
74431;BME280;62863;52.062;23.764;2023-03-23T18:03:57;1014.8;;;16.1;47.6
74431;BME280;62863;52.062;23.764;2023-03-23T18:14:19;1015;;;16.1;47.3
74431;BME280;62863;52.062;23.764;2023-03-23T18:19:27;1015.1;;;16;47.4
74431;BME280;62863;52.062;23.764;2023-03-23T18:24:27;1015.2;;;15.9;48
74431;BME280;62863;52.062;23.764;2023-03-23T18:29:03;1015.3;;;15.9;48.5
74431;BME280;62863;52.062;23.764;2023-03-23T18:39:25;1015.5;;;16;48
74431;BME280;62863;52.062;23.764;2023-03-23T18:44:05;1015.6;;;16;49.4
74431;BME280;62863;52.062;23.764;2023-03-23T18:48:39;1015.7;;;15.9;50.6
74431;BME280;62863;52.062;23.764;2023-03-23T18:53:57;1015.7;;;15.7;52.5
